Terminal Aerodrome Forecast
Issued by NWS

Home | Current Version | Previous Version | Text Only | Print | Product List | Glossary On
Versions: 1 2 3 4 5 6 7 8 9 10 11 12 13 14 15 16 17 18 19 20
466
FTUS43 KDLH 252320
TAFHYR
TAF
KHYR 252320Z 2600/2624 19007KT P6SM BKN250
     FM260300 12003KT P6SM VCSH OVC070
     FM260800 15008KT P6SM VCSH OVC035
     FM261700 18007KT P6SM VCSH OVC050=

USA.gov is the U.S. government's official web portal to all federal, state and local government web resources and services.